Time;durP1;ratioP1;P1;durP2;ratioP2;P2;SDS_P1;SDS_P2;PMS_P1;PMS_P2;Temp;Humidity;BMP_temperature;BMP_pressure;BME280_temperature;BME280_humidity;BME280_pressure;Samples;Min_cycle;Max_cycle;Signal;HPM_P1;HPM_P2
2021/06/07 00:00:07;;;;;;;;;;;;;;;27.27;37.09;100308.00;4469438;32;33320;-87
2021/06/07 00:02:38;;;;;;;;;;;;;;;27.92;35.86;100307.31;4469501;32;32969;-87
2021/06/07 00:05:13;;;;;;;;;;;;;;;28.05;35.69;100304.31;4469153;32;33508;-87
2021/06/07 00:07:47;;;;;;;;;;;;;;;28.18;35.61;100306.66;4469522;32;32845;-87
2021/06/07 00:10:19;;;;;;;;;;;;;;;28.11;35.67;100309.09;4469339;32;33551;-87
2021/06/07 00:12:55;;;;;;;;;;;;;;;28.54;34.76;100311.28;4469106;32;34180;-87
2021/06/07 00:15:28;;;;;;;;;;;;;;;28.54;34.77;100308.59;4482317;31;32483;-86
2021/06/07 00:17:58;;;;;;;;;;;;;;;28.82;34.42;100315.63;4469147;32;34269;-87
2021/06/07 00:20:34;;;;;;;;;;;;;;;28.19;35.79;100313.72;4469468;32;34366;-87
2021/06/07 00:23:04;;;;;;;;;;;;;;;27.25;37.73;100312.63;4468754;32;34532;-88
2021/06/07 00:25:38;;;;;;;;;;;;;;;27.59;36.70;100300.63;4468965;32;33388;-87
2021/06/07 00:28:10;;;;;;;;;;;;;;;28.07;36.05;100320.28;4468932;32;33554;-87
2021/06/07 00:30:41;;;;;;;;;;;;;;;28.11;36.02;100313.62;4468508;32;34766;-87
2021/06/07 00:33:16;;;;;;;;;;;;;;;28.22;36.10;100307.22;4468563;32;32552;-87
2021/06/07 00:35:58;;;;;;;;;;;;;;;28.37;35.96;100310.25;4470270;32;32917;-87
2021/06/07 00:38:28;;;;;;;;;;;;;;;28.06;36.58;100318.56;4471100;32;34496;-87
2021/06/07 00:41:04;;;;;;;;;;;;;;;27.77;37.05;100311.44;4471385;32;34502;-87
2021/06/07 00:43:37;;;;;;;;;;;;;;;27.79;37.06;100312.16;4470795;32;33390;-87
2021/06/07 00:46:10;;;;;;;;;;;;;;;27.53;37.52;100323.47;4471507;32;34023;-87
2021/06/07 00:48:42;;;;;;;;;;;;;;;27.52;37.49;100320.94;4470933;31;36511;-87
2021/06/07 00:51:16;;;;;;;;;;;;;;;27.85;36.80;100311.56;4471286;32;33580;-87
2021/06/07 00:53:49;;;;;;;;;;;;;;;28.57;35.33;100310.97;4483943;32;33520;-87
2021/06/07 00:56:21;;;;;;;;;;;;;;;28.33;35.62;100299.84;4483959;32;33135;-87
2021/06/07 00:58:54;;;;;;;;;;;;;;;27.90;36.54;100306.59;4470660;32;33360;-87
2021/06/07 01:01:30;;;;;;;;;;;;;;;27.94;36.57;100299.13;4483615;32;34227;-87
2021/06/07 01:03:58;;;;;;;;;;;;;;;27.57;37.20;100303.47;4470621;32;33524;-87
2021/06/07 01:06:29;;;;;;;;;;;;;;;28.10;36.17;100307.41;4496150;31;34378;-87
2021/06/07 01:09:05;;;;;;;;;;;;;;;27.68;37.13;100305.13;4483297;32;33216;-86
2021/06/07 01:11:40;;;;;;;;;;;;;;;27.30;37.83;100312.22;4471554;32;34926;-87
2021/06/07 01:14:16;;;;;;;;;;;;;;;27.23;37.83;100311.06;4483869;32;34278;-87
2021/06/07 01:16:51;;;;;;;;;;;;;;;27.63;37.00;100296.72;4470968;32;32939;-87
2021/06/07 01:19:25;;;;;;;;;;;;;;;27.39;37.52;100306.03;4471161;32;33303;-86
2021/06/07 01:22:07;;;;;;;;;;;;;;;27.59;36.98;100305.97;4483559;32;34870;-87
2021/06/07 01:24:57;;;;;;;;;;;;;;;27.36;37.56;100306.28;4483744;32;34989;-87
2021/06/07 01:27:50;;;;;;;;;;;;;;;25.87;40.80;100313.25;4484203;32;34689;-87
2021/06/07 01:30:36;;;;;;;;;;;;;;;26.00;40.46;100315.69;4494952;31;35651;-87
2021/06/07 01:33:06;;;;;;;;;;;;;;;25.59;41.11;100299.59;4484629;32;34321;-87
2021/06/07 01:35:57;;;;;;;;;;;;;;;25.18;42.05;100304.78;4490791;32;34891;-87
2021/06/07 01:38:27;;;;;;;;;;;;;;;25.23;41.80;100306.22;4491459;32;33497;-87
2021/06/07 01:40:58;;;;;;;;;;;;;;;25.13;41.97;100303.50;4487252;32;34033;-87
2021/06/07 01:43:26;;;;;;;;;;;;;;;26.49;38.85;100308.72;4469965;32;33547;-87
2021/06/07 01:46:02;;;;;;;;;;;;;;;25.97;39.81;100308.81;4470509;32;33477;-87
2021/06/07 01:48:30;;;;;;;;;;;;;;;25.68;40.59;100303.31;4470353;32;35439;-87
2021/06/07 01:51:23;;;;;;;;;;;;;;;25.90;40.17;100304.13;4483597;32;34814;-87
2021/06/07 01:53:56;;;;;;;;;;;;;;;26.12;39.69;100303.12;4471013;32;36589;-87
2021/06/07 01:56:28;;;;;;;;;;;;;;;27.02;37.75;100308.53;4470633;32;33261;-87
2021/06/07 01:59:20;;;;;;;;;;;;;;;26.86;38.29;100307.28;4493867;31;34638;-87
2021/06/07 02:02:08;;;;;;;;;;;;;;;26.86;38.19;100304.63;4483364;32;34943;-86
2021/06/07 02:04:42;;;;;;;;;;;;;;;26.63;38.75;100309.31;4470710;32;34524;-87
2021/06/07 02:07:13;;;;;;;;;;;;;;;26.92;38.21;100303.19;4482520;32;34134;-88
2021/06/07 02:09:48;;;;;;;;;;;;;;;27.23;37.44;100300.38;4470368;32;33753;-87
2021/06/07 02:12:29;;;;;;;;;;;;;;;27.48;36.77;100309.66;4471436;32;33192;-88
2021/06/07 02:15:06;;;;;;;;;;;;;;;26.55;38.81;100310.03;4482958;32;34458;-87
2021/06/07 02:17:43;;;;;;;;;;;;;;;27.03;37.75;100305.75;4482853;32;33676;-87
2021/06/07 02:20:19;;;;;;;;;;;;;;;26.77;38.33;100310.78;4470947;32;32344;-87
2021/06/07 02:22:48;;;;;;;;;;;;;;;26.96;38.00;100305.47;4482250;32;33986;-87
2021/06/07 02:25:20;;;;;;;;;;;;;;;26.53;38.93;100303.97;4470398;32;34011;-88
2021/06/07 02:27:53;;;;;;;;;;;;;;;26.97;38.08;100301.78;4470617;32;33348;-87
2021/06/07 02:30:24;;;;;;;;;;;;;;;26.56;38.93;100302.84;4470092;32;33430;-87
2021/06/07 02:32:58;;;;;;;;;;;;;;;26.86;38.21;100298.41;4469769;32;33672;-87
2021/06/07 02:35:26;;;;;;;;;;;;;;;26.76;38.45;100311.78;4482515;32;33168;-87
2021/06/07 02:38:04;;;;;;;;;;;;;;;26.88;38.17;100310.66;4469942;32;34094;-88
2021/06/07 02:40:38;;;;;;;;;;;;;;;26.93;38.03;100299.56;4482817;32;33946;-87
2021/06/07 02:43:06;;;;;;;;;;;;;;;26.96;37.95;100308.16;4468980;32;33621;-87
2021/06/07 02:45:39;;;;;;;;;;;;;;;26.79;38.38;100317.69;4482712;32;33413;-87
2021/06/07 02:48:12;;;;;;;;;;;;;;;26.79;38.40;100314.16;4469468;32;33839;-87
2021/06/07 02:50:44;;;;;;;;;;;;;;;26.62;38.65;100313.00;4469557;32;32395;-87
2021/06/07 02:53:15;;;;;;;;;;;;;;;26.42;39.15;100307.59;4482456;32;33403;-88
2021/06/07 02:55:50;;;;;;;;;;;;;;;26.50;38.97;100309.59;4470263;32;33663;-86
2021/06/07 02:58:20;;;;;;;;;;;;;;;26.64;38.82;100309.19;4469368;32;32655;-87
2021/06/07 03:00:55;;;;;;;;;;;;;;;26.59;38.86;100307.91;4469765;32;32042;-87
2021/06/07 03:03:27;;;;;;;;;;;;;;;26.46;39.16;100316.19;4469389;32;32847;-87
2021/06/07 03:06:00;;;;;;;;;;;;;;;26.54;38.96;100315.50;4470084;32;33379;-87
2021/06/07 03:08:39;;;;;;;;;;;;;;;27.03;37.93;100320.94;4470833;32;33170;-87
2021/06/07 03:11:11;;;;;;;;;;;;;;;26.49;39.04;100321.25;4469991;32;33974;-87
2021/06/07 03:13:48;;;;;;;;;;;;;;;26.48;39.10;100324.91;4470263;32;33184;-87
2021/06/07 03:16:21;;;;;;;;;;;;;;;25.94;40.36;100324.22;4469951;32;34010;-87
2021/06/07 03:18:56;;;;;;;;;;;;;;;26.57;39.04;100320.56;4470313;32;34247;-86
2021/06/07 03:21:32;;;;;;;;;;;;;;;26.17;39.87;100324.94;4470203;32;32295;-87
2021/06/07 03:24:05;;;;;;;;;;;;;;;26.51;39.31;100327.28;4482469;32;34894;-87
2021/06/07 03:26:37;;;;;;;;;;;;;;;26.80;38.64;100332.75;4470173;32;34617;-88
2021/06/07 03:29:08;;;;;;;;;;;;;;;26.88;38.42;100332.03;4469712;32;34861;-86
2021/06/07 03:31:44;;;;;;;;;;;;;;;27.19;37.80;100337.28;4470233;32;32762;-87
2021/06/07 03:34:21;;;;;;;;;;;;;;;26.77;38.74;100333.00;4470533;32;34757;-88
2021/06/07 03:36:57;;;;;;;;;;;;;;;26.75;38.74;100340.34;4469805;32;33914;-87
2021/06/07 03:39:29;;;;;;;;;;;;;;;26.88;38.43;100336.56;4469629;32;32633;-87
2021/06/07 03:42:07;;;;;;;;;;;;;;;26.83;38.42;100335.13;4469808;32;31936;-87
2021/06/07 03:44:39;;;;;;;;;;;;;;;26.42;39.18;100339.66;4469656;32;35073;-88
2021/06/07 03:47:12;;;;;;;;;;;;;;;26.09;39.94;100338.13;4469259;32;33560;-88
2021/06/07 03:49:40;;;;;;;;;;;;;;;26.74;38.54;100335.09;4481367;32;33864;-87
2021/06/07 03:52:15;;;;;;;;;;;;;;;27.32;37.37;100329.81;4482176;32;33334;-87
2021/06/07 03:54:50;;;;;;;;;;;;;;;27.18;37.54;100330.25;4469462;32;33343;-87
2021/06/07 03:57:27;;;;;;;;;;;;;;;26.36;39.76;100323.31;4482149;32;35214;-87
2021/06/07 04:00:04;;;;;;;;;;;;;;;27.40;37.66;100328.28;4469462;32;32982;-87
2021/06/07 04:02:39;;;;;;;;;;;;;;;27.79;36.78;100322.88;4470338;32;32330;-87
2021/06/07 04:05:17;;;;;;;;;;;;;;;27.61;37.15;100326.25;4470455;32;34349;-86
2021/06/07 04:07:56;;;;;;;;;;;;;;;27.39;37.75;100323.91;4470075;32;33750;-87
2021/06/07 04:10:30;;;;;;;;;;;;;;;27.40;37.84;100323.75;4481827;32;34863;-87
2021/06/07 04:13:01;;;;;;;;;;;;;;;27.77;37.15;100323.00;4470931;32;32945;-84
2021/06/07 04:15:33;;;;;;;;;;;;;;;27.90;36.97;100317.31;4470966;32;33218;-85
2021/06/07 04:18:04;;;;;;;;;;;;;;;27.90;37.00;100319.16;4471201;32;33137;-86
2021/06/07 04:20:35;;;;;;;;;;;;;;;27.98;36.74;100317.44;4484073;32;34427;-84
2021/06/07 04:23:08;;;;;;;;;;;;;;;27.90;37.01;100320.00;4470735;32;32403;-86
2021/06/07 04:25:43;;;;;;;;;;;;;;;28.06;36.64;100326.59;4471540;32;32804;-85
2021/06/07 04:28:18;;;;;;;;;;;;;;;27.81;37.13;100316.38;4471096;32;33974;-85
2021/06/07 04:30:50;;;;;;;;;;;;;;;27.96;36.79;100321.25;4470792;32;32787;-87
2021/06/07 04:33:25;;;;;;;;;;;;;;;28.18;36.41;100319.22;4471430;32;33552;-88
2021/06/07 04:36:04;;;;;;;;;;;;;;;27.75;37.29;100319.63;4472051;32;33862;-88
2021/06/07 04:38:39;;;;;;;;;;;;;;;27.66;37.51;100313.31;4470707;32;33837;-87
2021/06/07 04:41:16;;;;;;;;;;;;;;;28.39;35.96;100317.16;4471436;32;34806;-87
2021/06/07 04:43:54;;;;;;;;;;;;;;;28.50;35.64;100326.81;4471602;32;34452;-89
2021/06/07 04:46:28;;;;;;;;;;;;;;;28.28;35.70;100330.72;4470875;32;34900;-88
2021/06/07 04:49:02;;;;;;;;;;;;;;;28.31;35.58;100328.59;4495811;31;35274;-88
2021/06/07 04:51:43;;;;;;;;;;;;;;;28.49;35.09;100325.13;4471302;32;33398;-88
2021/06/07 04:54:20;;;;;;;;;;;;;;;28.47;35.08;100327.12;4472074;32;33797;-88
2021/06/07 04:56:48;;;;;;;;;;;;;;;28.49;36.09;100346.56;4484321;32;34308;-88
2021/06/07 04:59:16;;;;;;;;;;;;;;;28.36;36.93;100329.97;4497160;31;35192;-86
2021/06/07 05:01:44;;;;;;;;;;;;;;;28.67;36.20;100338.59;4484165;32;32528;-88
2021/06/07 05:04:12;;;;;;;;;;;;;;;28.73;35.96;100332.63;4499036;31;34071;-83
2021/06/07 05:06:40;;;;;;;;;;;;;;;28.86;35.71;100332.25;4484236;32;33694;-84
2021/06/07 05:09:07;;;;;;;;;;;;;;;28.67;36.00;100338.59;4490114;32;34985;-82
2021/06/07 05:11:35;;;;;;;;;;;;;;;29.01;35.29;100337.09;4505695;31;33843;-84
2021/06/07 05:14:03;;;;;;;;;;;;;;;28.93;34.89;100338.72;4503433;31;33639;-82
2021/06/07 05:16:30;;;;;;;;;;;;;;;28.53;35.29;100344.44;4488840;32;33840;-84
2021/06/07 05:18:58;;;;;;;;;;;;;;;28.75;34.75;100344.03;4496962;31;33486;-84
2021/06/07 05:21:26;;;;;;;;;;;;;;;29.24;33.85;100338.31;4483413;32;33680;-85
2021/06/07 05:23:53;;;;;;;;;;;;;;;29.17;34.21;100339.91;4496355;31;33778;-84
2021/06/07 05:26:21;;;;;;;;;;;;;;;29.23;34.00;100333.94;4483782;32;33452;-85
2021/06/07 05:28:48;;;;;;;;;;;;;;;29.48;33.50;100334.19;4496646;31;33765;-87
2021/06/07 05:31:16;;;;;;;;;;;;;;;29.84;33.13;100342.13;4469968;32;33287;-86
2021/06/07 05:33:43;;;;;;;;;;;;;;;29.70;33.63;100343.53;4484613;32;33483;-86
2021/06/07 05:36:11;;;;;;;;;;;;;;;29.71;33.35;100341.72;4470411;32;32916;-85
2021/06/07 05:38:38;;;;;;;;;;;;;;;29.85;33.00;100346.50;4496413;31;33764;-86
2021/06/07 05:41:06;;;;;;;;;;;;;;;29.82;33.12;100342.28;4496559;31;33693;-86
2021/06/07 05:43:34;;;;;;;;;;;;;;;29.44;33.69;100344.38;4483165;32;33931;-86
2021/06/07 05:46:01;;;;;;;;;;;;;;;29.89;33.00;100345.22;4457492;32;35091;-87
2021/06/07 05:48:30;;;;;;;;;;;;;;;29.94;33.43;100348.28;4467891;32;33331;-87
2021/06/07 05:50:58;;;;;;;;;;;;;;;29.50;34.42;100348.28;4469071;32;33711;-86
2021/06/07 05:53:25;;;;;;;;;;;;;;;29.50;34.30;100350.94;4481276;32;33094;-87
2021/06/07 05:55:53;;;;;;;;;;;;;;;29.62;33.56;100351.53;4468093;32;33952;-87
2021/06/07 05:58:21;;;;;;;;;;;;;;;29.24;34.42;100357.09;4469255;32;34778;-88
2021/06/07 06:00:50;;;;;;;;;;;;;;;29.48;34.06;100355.66;4467143;32;33891;-88
2021/06/07 06:03:20;;;;;;;;;;;;;;;29.27;34.47;100353.28;4467324;32;32930;-87
2021/06/07 06:05:47;;;;;;;;;;;;;;;29.61;34.54;100352.53;4480656;32;34044;-86
2021/06/07 06:08:18;;;;;;;;;;;;;;;29.79;34.05;100355.19;4470300;32;33197;-86
2021/06/07 06:10:45;;;;;;;;;;;;;;;29.86;34.07;100355.41;4471157;32;34292;-87
2021/06/07 06:13:33;;;;;;;;;;;;;;;29.87;33.73;100357.94;4470437;32;32432;-82
2021/06/07 06:16:02;;;;;;;;;;;;;;;30.24;32.88;100362.19;4483173;32;33907;-81
2021/06/07 06:18:30;;;;;;;;;;;;;;;29.92;33.35;100371.75;4485265;32;34481;-82
2021/06/07 06:20:57;;;;;;;;;;;;;;;30.15;32.87;100366.69;4445570;32;32802;-81
2021/06/07 06:23:25;;;;;;;;;;;;;;;30.20;32.81;100368.87;4457758;32;33226;-82
2021/06/07 06:25:53;;;;;;;;;;;;;;;30.22;32.59;100366.03;4444812;32;35349;-82
2021/06/07 06:28:20;;;;;;;;;;;;;;;30.29;32.41;100367.94;4468742;32;33888;-84
2021/06/07 06:30:48;;;;;;;;;;;;;;;29.88;33.04;100370.38;4467299;32;33704;-83
2021/06/07 06:33:16;;;;;;;;;;;;;;;29.89;32.96;100374.78;4467445;32;33220;-82
2021/06/07 06:35:43;;;;;;;;;;;;;;;30.38;31.96;100370.66;4479917;32;33995;-83
2021/06/07 06:38:11;;;;;;;;;;;;;;;29.80;33.35;100365.78;4467203;32;34065;-83
2021/06/07 06:40:39;;;;;;;;;;;;;;;29.83;33.27;100367.28;4454287;32;33190;-82
2021/06/07 06:43:07;;;;;;;;;;;;;;;30.14;32.55;100369.53;4480348;32;33307;-83
2021/06/07 06:45:39;;;;;;;;;;;;;;;30.13;32.29;100365.16;4471524;32;34268;-85
2021/06/07 06:48:07;;;;;;;;;;;;;;;30.62;31.61;100372.59;4464568;32;35595;-81
2021/06/07 06:50:36;;;;;;;;;;;;;;;30.46;31.96;100362.63;4469107;32;34073;-84
2021/06/07 06:53:04;;;;;;;;;;;;;;;31.01;30.96;100369.34;4455041;32;31724;-82
2021/06/07 06:55:32;;;;;;;;;;;;;;;30.56;31.31;100376.78;4469176;32;33701;-82
2021/06/07 06:58:00;;;;;;;;;;;;;;;30.69;31.19;100367.41;4441707;32;35079;-85
2021/06/07 07:00:30;;;;;;;;;;;;;;;30.76;31.29;100376.53;4467254;32;33594;-83
2021/06/07 07:02:57;;;;;;;;;;;;;;;30.89;31.16;100374.22;4470231;32;33207;-84
2021/06/07 07:05:25;;;;;;;;;;;;;;;31.24;30.49;100374.94;4457093;32;33895;-83
2021/06/07 07:07:53;;;;;;;;;;;;;;;31.49;29.65;100372.28;4470475;32;34254;-84
2021/06/07 07:10:21;;;;;;;;;;;;;;;31.82;28.99;100372.28;4469237;32;34685;-85
2021/06/07 07:12:48;;;;;;;;;;;;;;;31.69;29.06;100380.03;4469844;32;31842;-85
2021/06/07 07:15:16;;;;;;;;;;;;;;;32.28;28.31;100369.81;4480825;32;34918;-84
2021/06/07 07:17:45;;;;;;;;;;;;;;;32.16;28.14;100373.88;4482741;32;34117;-85
2021/06/07 07:20:13;;;;;;;;;;;;;;;31.80;27.33;100377.84;4482908;32;33849;-82
2021/06/07 07:22:42;;;;;;;;;;;;;;;32.37;26.80;100377.88;4471454;32;34505;-85
2021/06/07 07:25:09;;;;;;;;;;;;;;;32.60;26.99;100383.31;4469831;32;34698;-85
2021/06/07 07:27:37;;;;;;;;;;;;;;;32.75;26.82;100381.59;4470157;32;32703;-86
2021/06/07 07:30:10;;;;;;;;;;;;;;;32.42;26.89;100386.28;4467141;32;34876;-85
2021/06/07 07:32:38;;;;;;;;;;;;;;;32.75;26.17;100378.06;4468451;32;33506;-84
2021/06/07 07:35:06;;;;;;;;;;;;;;;32.64;26.49;100382.81;4467271;32;33686;-85
2021/06/07 07:37:34;;;;;;;;;;;;;;;33.05;25.83;100392.53;4477856;32;34020;-87
2021/06/07 07:40:05;;;;;;;;;;;;;;;33.28;25.37;100386.31;4482404;32;34541;-85
2021/06/07 07:42:33;;;;;;;;;;;;;;;33.32;25.21;100393.06;4481988;32;31687;-84
2021/06/07 07:45:01;;;;;;;;;;;;;;;32.69;26.21;100389.53;4482205;32;34976;-85
2021/06/07 07:47:29;;;;;;;;;;;;;;;32.55;26.32;100397.34;4467138;32;34807;-83
2021/06/07 07:49:57;;;;;;;;;;;;;;;32.41;26.34;100395.38;4467741;32;33733;-84
2021/06/07 07:52:25;;;;;;;;;;;;;;;31.80;27.63;100394.00;4428119;32;32851;-85
2021/06/07 07:54:53;;;;;;;;;;;;;;;32.23;27.21;100391.06;4454062;32;34800;-86
2021/06/07 07:57:21;;;;;;;;;;;;;;;32.41;26.81;100393.50;4453780;32;34000;-85
2021/06/07 07:59:48;;;;;;;;;;;;;;;32.41;26.50;100390.00;4468413;32;33850;-83
2021/06/07 08:02:16;;;;;;;;;;;;;;;32.58;25.89;100390.75;4454350;32;34046;-87
2021/06/07 08:04:45;;;;;;;;;;;;;;;32.86;24.55;100388.44;4454309;32;35188;-84
2021/06/07 08:07:12;;;;;;;;;;;;;;;32.91;24.35;100391.44;4468223;32;34340;-85
2021/06/07 08:09:39;;;;;;;;;;;;;;;33.11;24.47;100385.59;4470012;32;34671;-83
2021/06/07 08:12:07;;;;;;;;;;;;;;;32.86;24.94;100391.12;4483690;32;33579;-85
2021/06/07 08:14:35;;;;;;;;;;;;;;;33.06;24.39;100391.50;4483299;32;34724;-86
2021/06/07 08:17:03;;;;;;;;;;;;;;;32.78;24.78;100392.03;4469850;32;34140;-83
2021/06/07 08:19:31;;;;;;;;;;;;;;;32.89;23.44;100389.94;4469633;32;33884;-83
2021/06/07 08:21:58;;;;;;;;;;;;;;;32.85;22.89;100394.84;4482516;32;33924;-84
2021/06/07 08:24:26;;;;;;;;;;;;;;;33.23;22.78;100383.31;4482541;32;34785;-84
2021/06/07 08:26:54;;;;;;;;;;;;;;;32.61;24.21;100396.63;4456584;32;33418;-84
2021/06/07 08:29:21;;;;;;;;;;;;;;;33.75;23.14;100389.81;4469494;32;34034;-84
2021/06/07 08:31:48;;;;;;;;;;;;;;;33.77;23.16;100390.44;4482530;32;34283;-85
2021/06/07 08:34:16;;;;;;;;;;;;;;;32.85;24.48;100397.53;4482687;32;34273;-83
2021/06/07 08:36:44;;;;;;;;;;;;;;;33.05;24.37;100391.69;4482501;32;34247;-83
2021/06/07 08:39:11;;;;;;;;;;;;;;;33.45;23.42;100389.72;4482237;32;33947;-82
2021/06/07 08:41:39;;;;;;;;;;;;;;;33.34;23.43;100388.31;4469601;32;32934;-83
2021/06/07 08:44:24;;;;;;;;;;;;;;;32.97;23.43;100385.34;4460734;32;32871;-83
2021/06/07 08:46:52;;;;;;;;;;;;;;;32.47;23.94;100389.28;4470929;32;33854;-84
2021/06/07 08:49:21;;;;;;;;;;;;;;;33.05;22.82;100384.44;4466952;32;34084;-82
2021/06/07 08:51:49;;;;;;;;;;;;;;;33.30;22.57;100384.28;4453399;32;33202;-85
2021/06/07 08:54:16;;;;;;;;;;;;;;;33.13;22.27;100384.41;4466132;32;34873;-83
2021/06/07 08:56:44;;;;;;;;;;;;;;;33.49;21.79;100387.50;4440436;32;32907;-83
2021/06/07 08:59:14;;;;;;;;;;;;;;;33.00;22.52;100376.06;4469602;32;35487;-84
2021/06/07 09:01:43;;;;;;;;;;;;;;;33.21;22.26;100379.94;4455688;32;31390;-83
2021/06/07 09:04:12;;;;;;;;;;;;;;;33.74;21.42;100375.44;4468403;32;33938;-83
2021/06/07 09:06:40;;;;;;;;;;;;;;;33.93;20.82;100384.06;4468649;32;34217;-83
2021/06/07 09:09:08;;;;;;;;;;;;;;;33.37;22.18;100376.31;4468006;32;34688;-83
2021/06/07 09:11:42;;;;;;;;;;;;;;;33.65;21.91;100373.03;4468419;32;33200;-84
2021/06/07 09:14:17;;;;;;;;;;;;;;;32.54;22.80;100378.66;4455607;32;34163;-84
2021/06/07 09:16:44;;;;;;;;;;;;;;;34.08;20.92;100376.00;4468442;32;34108;-83
2021/06/07 09:19:16;;;;;;;;;;;;;;;34.69;20.13;100369.50;4467665;32;34326;-84
2021/06/07 09:21:46;;;;;;;;;;;;;;;34.21;20.40;100375.31;4464974;32;32930;-84
2021/06/07 09:24:14;;;;;;;;;;;;;;;34.29;20.18;100375.22;4470821;32;34458;-83
2021/06/07 09:26:46;;;;;;;;;;;;;;;34.61;20.35;100374.00;4473257;32;34012;-82
2021/06/07 09:29:20;;;;;;;;;;;;;;;34.46;20.57;100373.19;4469683;32;33734;-84
2021/06/07 09:31:51;;;;;;;;;;;;;;;34.59;20.61;100364.41;4455442;32;31790;-84
2021/06/07 09:34:35;;;;;;;;;;;;;;;34.73;20.64;100363.53;4469411;32;33803;-86
2021/06/07 09:37:07;;;;;;;;;;;;;;;35.25;20.11;100361.56;4447381;32;33257;-82
2021/06/07 09:39:36;;;;;;;;;;;;;;;35.01;20.44;100367.38;4455331;32;34667;-84
2021/06/07 09:42:05;;;;;;;;;;;;;;;36.09;19.21;100359.09;4442220;32;31826;-87
2021/06/07 09:44:43;;;;;;;;;;;;;;;36.34;18.99;100364.88;4468065;32;33227;-84
2021/06/07 09:47:13;;;;;;;;;;;;;;;35.21;20.38;100365.69;4473623;32;34341;-83
2021/06/07 09:49:54;;;;;;;;;;;;;;;36.01;19.58;100360.09;4467431;32;34150;-82
2021/06/07 09:52:25;;;;;;;;;;;;;;;36.70;18.09;100357.50;4483152;32;32750;-81
2021/06/07 09:55:12;;;;;;;;;;;;;;;36.82;18.23;100358.59;4470195;32;35479;-84
2021/06/07 09:57:41;;;;;;;;;;;;;;;37.09;18.08;100353.19;4470292;32;34573;-82
2021/06/07 10:00:09;;;;;;;;;;;;;;;37.14;18.16;100347.12;4480132;32;33429;-83
2021/06/07 10:02:38;;;;;;;;;;;;;;;37.24;18.28;100347.56;4480695;32;32706;-82
2021/06/07 10:05:06;;;;;;;;;;;;;;;36.75;18.73;100346.81;4454609;32;33881;-83
2021/06/07 10:07:34;;;;;;;;;;;;;;;37.05;18.79;100349.22;4467916;32;33707;-84
2021/06/07 10:10:19;;;;;;;;;;;;;;;37.27;18.80;100352.59;4467577;32;34119;-83
2021/06/07 10:12:48;;;;;;;;;;;;;;;36.30;19.72;100352.72;4479644;31;32798;-84
2021/06/07 10:15:32;;;;;;;;;;;;;;;36.52;19.71;100337.16;4483322;32;34747;-82
2021/06/07 10:18:02;;;;;;;;;;;;;;;35.42;20.37;100336.94;4496482;31;33759;-82
2021/06/07 10:23:01;;;;;;;;;;;;;;;36.05;19.53;100353.22;4502042;31;33055;-82
2021/06/07 10:25:30;;;;;;;;;;;;;;;36.21;19.20;100353.94;4489147;32;33676;-83
2021/06/07 10:27:57;;;;;;;;;;;;;;;35.86;19.57;100352.09;4501446;31;34092;-80
2021/06/07 10:30:25;;;;;;;;;;;;;;;35.43;20.23;100347.59;4484223;32;34144;-83
2021/06/07 10:32:53;;;;;;;;;;;;;;;35.99;19.67;100351.31;4496565;31;32925;-82
2021/06/07 10:35:29;;;;;;;;;;;;;;;36.36;19.58;100349.22;4483324;32;34031;-82
2021/06/07 10:37:58;;;;;;;;;;;;;;;35.44;20.31;100351.94;4483364;32;32745;-84
2021/06/07 10:40:26;;;;;;;;;;;;;;;35.37;20.52;100355.63;4496025;31;34081;-84
2021/06/07 10:43:03;;;;;;;;;;;;;;;35.50;20.33;100347.66;4483396;32;33306;-82
2021/06/07 10:45:33;;;;;;;;;;;;;;;35.76;20.04;100348.84;4484356;32;34764;-82
2021/06/07 10:48:02;;;;;;;;;;;;;;;35.70;19.92;100350.50;4497750;31;33792;-82
2021/06/07 10:50:34;;;;;;;;;;;;;;;35.38;20.25;100346.47;4497438;31;33980;-82
2021/06/07 10:53:03;;;;;;;;;;;;;;;35.62;19.93;100339.78;4473250;32;32648;-84
2021/06/07 10:55:32;;;;;;;;;;;;;;;36.04;19.53;100343.41;4499824;31;35324;-83
2021/06/07 10:58:00;;;;;;;;;;;;;;;36.14;19.52;100337.62;4497202;31;34960;-81
2021/06/07 11:00:33;;;;;;;;;;;;;;;35.55;19.88;100331.59;4483348;32;35040;-83
2021/06/07 11:03:02;;;;;;;;;;;;;;;35.98;19.22;100324.41;4496289;31;33229;-84
2021/06/07 11:05:31;;;;;;;;;;;;;;;36.03;19.32;100325.47;4495984;31;33985;-83
2021/06/07 11:08:04;;;;;;;;;;;;;;;36.71;18.65;100321.16;4495312;31;34269;-84
2021/06/07 11:10:32;;;;;;;;;;;;;;;36.21;19.33;100319.50;4496274;31;34755;-82
2021/06/07 11:13:02;;;;;;;;;;;;;;;35.68;19.67;100327.34;4483958;32;33258;-83
2021/06/07 11:15:30;;;;;;;;;;;;;;;35.17;19.99;100318.37;4495730;31;35018;-83
2021/06/07 11:18:17;;;;;;;;;;;;;;;36.53;18.56;100311.72;4483947;32;33752;-82
2021/06/07 11:20:45;;;;;;;;;;;;;;;37.10;17.87;100303.28;4469397;32;33618;-81
2021/06/07 11:23:15;;;;;;;;;;;;;;;37.02;18.04;100300.78;4482581;32;33118;-82
2021/06/07 11:25:54;;;;;;;;;;;;;;;37.12;18.22;100309.31;4496644;31;33684;-82
2021/06/07 11:28:31;;;;;;;;;;;;;;;37.36;18.06;100310.63;4496459;31;33622;-83
2021/06/07 11:30:59;;;;;;;;;;;;;;;37.93;17.44;100310.09;4483747;32;33477;-83
2021/06/07 11:33:27;;;;;;;;;;;;;;;37.58;17.65;100307.66;4483877;32;33243;-82
2021/06/07 11:35:55;;;;;;;;;;;;;;;37.54;17.60;100307.22;4469712;32;33039;-82
2021/06/07 11:38:30;;;;;;;;;;;;;;;37.45;17.65;100307.69;4482409;32;35110;-83
2021/06/07 11:40:58;;;;;;;;;;;;;;;37.90;17.11;100314.06;4495606;31;33904;-83
2021/06/07 11:43:44;;;;;;;;;;;;;;;37.45;17.55;100323.97;4483684;32;32939;-83
2021/06/07 11:46:35;;;;;;;;;;;;;;;37.90;18.92;100335.00;4483578;32;34082;-84
2021/06/07 11:49:14;;;;;;;;;;;;;;;35.91;21.90;100336.06;4476290;31;34099;-83
2021/06/07 11:51:43;;;;;;;;;;;;;;;36.40;20.31;100326.06;4483028;32;34475;-84
2021/06/07 11:54:26;;;;;;;;;;;;;;;35.59;21.30;100330.22;4456345;32;33477;-83
2021/06/07 11:56:57;;;;;;;;;;;;;;;35.56;21.89;100318.91;4468336;32;32964;-84
2021/06/07 11:59:25;;;;;;;;;;;;;;;35.32;26.50;100312.03;4470135;32;35277;-83
2021/06/07 12:01:52;;;;;;;;;;;;;;;34.09;28.90;100305.53;4485356;32;34057;-84
2021/06/07 12:04:23;;;;;;;;;;;;;;;34.28;29.08;100306.78;4460330;32;32319;-86
2021/06/07 12:06:56;;;;;;;;;;;;;;;34.56;28.66;100308.81;4484912;32;32986;-85
2021/06/07 12:09:24;;;;;;;;;;;;;;;34.19;27.03;100304.38;4456636;32;33616;-85
2021/06/07 12:11:52;;;;;;;;;;;;;;;34.01;28.35;100307.47;4456101;32;33650;-87
2021/06/07 12:14:24;;;;;;;;;;;;;;;34.37;25.71;100302.16;4457287;32;32937;-86
2021/06/07 12:16:52;;;;;;;;;;;;;;;34.66;24.12;100300.38;4465900;32;33715;-86
2021/06/07 12:19:29;;;;;;;;;;;;;;;34.38;24.52;100297.56;4440241;32;34141;-87
2021/06/07 12:21:57;;;;;;;;;;;;;;;34.78;24.67;100295.28;4467234;32;33932;-88
2021/06/07 12:24:25;;;;;;;;;;;;;;;35.47;22.88;100287.59;4446143;32;32885;-86
2021/06/07 12:29:40;;;;;;;;;;;;;;;35.22;20.13;100277.16;4465182;32;33790;-86
2021/06/07 12:32:09;;;;;;;;;;;;;;;35.66;22.97;100286.88;4447991;32;33410;-87
2021/06/07 12:34:38;;;;;;;;;;;;;;;36.04;19.73;100277.50;4467943;32;32675;-86
2021/06/07 12:37:06;;;;;;;;;;;;;;;35.58;20.68;100285.16;4467990;32;34253;-86
2021/06/07 12:39:33;;;;;;;;;;;;;;;36.69;19.59;100279.81;4454754;32;33851;-86
2021/06/07 12:42:01;;;;;;;;;;;;;;;35.73;19.15;100281.50;4447877;32;32695;-88
2021/06/07 12:44:29;;;;;;;;;;;;;;;36.64;18.57;100268.75;4455004;32;33604;-87
2021/06/07 12:46:56;;;;;;;;;;;;;;;36.06;17.60;100267.28;4467975;32;33684;-86
2021/06/07 12:49:25;;;;;;;;;;;;;;;36.47;18.80;100271.81;4468783;32;34146;-87
2021/06/07 12:52:11;;;;;;;;;;;;;;;35.89;19.75;100259.50;4467588;32;34410;-86
2021/06/07 12:54:38;;;;;;;;;;;;;;;35.90;18.65;100257.63;4468015;32;33689;-86
2021/06/07 12:57:06;;;;;;;;;;;;;;;36.43;18.64;100265.13;4467903;32;34292;-87
2021/06/07 12:59:34;;;;;;;;;;;;;;;36.46;18.88;100262.03;4454995;32;33696;-86
2021/06/07 13:02:02;;;;;;;;;;;;;;;36.68;18.35;100257.25;4457254;32;32808;-86